createdAt,value
2017-10-12T00:02:22.999Z,83.80
2017-10-12T00:05:25.054Z,83.70
2017-10-12T00:08:27.873Z,83.70
2017-10-12T00:11:30.666Z,83.80
2017-10-12T00:14:33.458Z,83.60
2017-10-12T00:17:35.441Z,83.60
2017-10-12T00:20:37.441Z,84.10
2017-10-12T00:23:40.153Z,83.00
2017-10-12T00:26:42.209Z,83.00
2017-10-12T00:29:44.186Z,83.10
2017-10-12T00:32:46.195Z,83.10
2017-10-12T00:35:48.879Z,84.40
2017-10-12T00:38:51.993Z,85.20
2017-10-12T00:41:54.706Z,85.00
2017-10-12T00:44:56.677Z,84.90
2017-10-12T00:47:58.673Z,85.00
2017-10-12T00:51:00.648Z,85.20
2017-10-12T00:54:02.586Z,85.90
2017-10-12T00:57:04.578Z,85.50
2017-10-12T01:00:08.023Z,85.90
2017-10-12T01:03:10.800Z,87.60
2017-10-12T01:06:13.522Z,88.30
2017-10-12T01:09:16.290Z,89.10
2017-10-12T01:12:18.937Z,89.00
2017-10-12T01:15:21.717Z,90.60
2017-10-12T01:18:23.739Z,90.60
2017-10-12T01:21:27.139Z,90.80
2017-10-12T01:24:29.080Z,91.60
2017-10-12T01:27:31.040Z,91.60
2017-10-12T01:30:33.040Z,91.90
2017-10-12T01:33:34.995Z,92.30
2017-10-12T01:36:38.042Z,92.60
2017-10-12T01:39:42.545Z,92.80
2017-10-12T01:42:44.469Z,93.10
2017-10-12T01:45:46.492Z,93.30
2017-10-12T01:48:58.245Z,93.60
2017-10-12T01:52:00.233Z,93.70
2017-10-12T01:55:02.777Z,93.80
2017-10-12T01:58:05.590Z,93.90
2017-10-12T02:01:07.542Z,93.90
2017-10-12T02:04:09.491Z,93.80
2017-10-12T02:07:11.428Z,93.70
2017-10-12T02:10:13.506Z,93.70
2017-10-12T02:13:16.298Z,93.70
2017-10-12T02:16:20.215Z,93.70
2017-10-12T02:19:22.291Z,93.70
2017-10-12T02:22:24.250Z,93.80
2017-10-12T02:25:26.182Z,93.90
2017-10-12T02:28:28.906Z,94.30
2017-10-12T02:31:30.873Z,94.30
2017-10-12T02:34:33.649Z,94.70
2017-10-12T02:37:36.406Z,94.80
2017-10-12T02:40:38.383Z,94.80
2017-10-12T02:43:40.322Z,95.00
2017-10-12T02:46:43.126Z,95.20
2017-10-12T02:49:45.981Z,95.30
2017-10-12T02:52:48.104Z,95.30
2017-10-12T02:55:50.071Z,95.40
2017-10-12T02:58:52.058Z,95.40
2017-10-12T03:01:54.093Z,95.50
2017-10-12T03:04:56.170Z,95.50
2017-10-12T03:07:58.954Z,95.70
2017-10-12T03:11:00.925Z,95.70
2017-10-12T03:14:03.423Z,95.90
2017-10-12T03:17:05.405Z,95.70
2017-10-12T03:20:08.832Z,95.80
2017-10-12T03:23:10.785Z,95.80
2017-10-12T03:26:12.818Z,95.70
2017-10-12T03:29:14.809Z,95.80
2017-10-12T03:32:16.781Z,95.80
2017-10-12T03:35:18.964Z,95.80
2017-10-12T03:38:21.790Z,95.80
2017-10-12T03:41:23.761Z,95.80
2017-10-12T03:44:25.685Z,96.00
2017-10-12T03:47:28.319Z,95.70
2017-10-12T03:50:30.252Z,95.50
2017-10-12T03:53:32.322Z,95.60
2017-10-12T03:56:34.286Z,95.50
2017-10-12T03:59:37.078Z,95.60
2017-10-12T04:02:41.086Z,95.40
2017-10-12T04:05:43.097Z,95.40
2017-10-12T04:08:45.810Z,95.30
2017-10-12T04:11:47.789Z,95.30
2017-10-12T04:14:49.742Z,95.20
2017-10-12T04:17:51.739Z,95.10
2017-10-12T04:20:54.444Z,95.00
2017-10-12T04:23:57.229Z,95.00
2017-10-12T04:26:59.244Z,95.00
2017-10-12T04:30:01.295Z,95.00
2017-10-12T04:33:03.286Z,94.90
2017-10-12T04:36:07.211Z,94.80
2017-10-12T04:39:09.154Z,94.80
2017-10-12T04:42:11.213Z,94.50
2017-10-12T04:45:13.130Z,94.50
2017-10-12T04:48:15.166Z,94.50
2017-10-12T04:51:17.125Z,94.40
2017-10-12T04:54:19.144Z,94.30
2017-10-12T04:57:21.130Z,94.20
2017-10-12T05:00:23.085Z,94.20
2017-10-12T05:03:25.917Z,94.10
2017-10-12T05:06:27.963Z,94.10
2017-10-12T05:09:30.598Z,94.10
2017-10-12T05:12:32.638Z,93.80
2017-10-12T05:15:34.750Z,93.70
2017-10-12T05:18:37.547Z,93.60
2017-10-12T05:21:40.336Z,93.50
2017-10-12T05:24:42.315Z,93.50
2017-10-12T05:27:44.306Z,93.50
2017-10-12T05:30:46.315Z,93.20
2017-10-12T05:33:48.247Z,93.00
2017-10-12T05:36:50.278Z,93.10
2017-10-12T05:39:52.229Z,93.00
2017-10-12T05:42:54.213Z,92.80
2017-10-12T05:45:56.222Z,92.80
2017-10-12T05:48:58.206Z,92.60
2017-10-12T05:52:00.160Z,92.80
2017-10-12T05:55:02.130Z,92.30
2017-10-12T05:58:04.742Z,92.30
2017-10-12T06:01:06.755Z,92.30
2017-10-12T06:04:08.674Z,92.10
2017-10-12T06:07:10.702Z,91.70
2017-10-12T06:10:13.404Z,91.60
2017-10-12T06:13:16.151Z,91.40
2017-10-12T06:16:18.091Z,91.40
2017-10-12T06:19:20.841Z,91.50
2017-10-12T06:22:22.869Z,91.50
2017-10-12T06:25:25.672Z,90.80
2017-10-12T06:28:28.475Z,90.70
2017-10-12T06:31:31.201Z,90.20
2017-10-12T06:34:33.164Z,90.20
2017-10-12T06:37:35.965Z,90.10
2017-10-12T06:40:38.700Z,90.00
2017-10-12T06:43:40.647Z,89.90
2017-10-12T06:46:43.341Z,89.50
2017-10-12T06:49:46.049Z,89.20
2017-10-12T06:52:48.853Z,87.70
2017-10-12T06:55:51.638Z,87.60
2017-10-12T06:58:55.133Z,86.20
2017-10-12T07:01:57.142Z,86.20
2017-10-12T07:04:59.100Z,84.60
2017-10-12T07:08:01.962Z,82.00
2017-10-12T07:11:03.931Z,82.10
2017-10-12T07:14:06.700Z,81.00
2017-10-12T07:17:08.665Z,80.90
2017-10-12T07:20:10.686Z,79.40
2017-10-12T07:23:13.396Z,73.20
2017-10-12T07:26:16.218Z,70.60
2017-10-12T07:29:18.162Z,70.60
2017-10-12T07:32:21.101Z,69.70
2017-10-12T07:35:23.072Z,69.60
2017-10-12T07:38:26.689Z,70.90
2017-10-12T07:41:29.429Z,69.30
2017-10-12T07:44:31.488Z,69.30
2017-10-12T07:47:33.465Z,66.90
2017-10-12T07:50:36.250Z,64.70
2017-10-12T07:53:39.066Z,62.80
2017-10-12T07:56:41.146Z,62.90
2017-10-12T07:59:43.947Z,63.80
2017-10-12T08:02:46.745Z,63.70
2017-10-12T08:05:48.684Z,63.50
2017-10-12T08:08:51.050Z,64.20
2017-10-12T08:11:52.978Z,66.20
2017-10-12T08:14:55.011Z,67.50
2017-10-12T08:17:56.995Z,66.20
2017-10-12T08:20:59.389Z,63.90
2017-10-12T08:24:01.332Z,59.30
2017-10-12T08:27:03.645Z,53.50
2017-10-12T08:30:05.640Z,50.60
2017-10-12T08:33:19.408Z,51.30
2017-10-12T08:36:21.348Z,53.20
2017-10-12T08:39:24.906Z,57.00
2017-10-12T08:42:26.834Z,56.90
2017-10-12T08:45:28.865Z,59.00
2017-10-12T08:48:31.681Z,59.10
2017-10-12T08:51:34.325Z,59.10
2017-10-12T08:54:36.874Z,61.70
2017-10-12T08:57:40.328Z,61.00
2017-10-12T09:00:42.570Z,60.90
2017-10-12T09:03:45.674Z,60.70
2017-10-12T09:06:48.370Z,57.70
2017-10-12T09:09:50.373Z,57.70
2017-10-12T09:12:53.153Z,57.70
2017-10-12T09:15:56.369Z,57.80
2017-10-12T09:18:58.355Z,56.40
2017-10-12T09:22:00.647Z,56.20
2017-10-12T09:25:02.574Z,56.90
2017-10-12T09:28:04.950Z,56.20
2017-10-12T09:31:06.878Z,55.70
2017-10-12T09:34:08.851Z,54.30
2017-10-12T09:37:10.783Z,53.40
2017-10-12T09:40:13.535Z,49.70
2017-10-12T09:43:15.457Z,49.60
2017-10-12T09:46:18.585Z,47.30
2017-10-12T09:49:20.626Z,47.30
2017-10-12T09:52:22.949Z,48.00
2017-10-12T09:55:25.657Z,47.60
2017-10-12T09:58:27.909Z,47.50
2017-10-12T10:01:29.829Z,42.60
2017-10-12T10:04:31.910Z,39.50
2017-10-12T10:07:33.890Z,37.70
2017-10-12T10:10:36.682Z,38.40
2017-10-12T10:13:39.377Z,36.30
2017-10-12T10:16:41.365Z,36.30
2017-10-12T10:19:44.187Z,39.70
2017-10-12T10:22:46.567Z,39.60
2017-10-12T10:25:49.909Z,41.40
2017-10-12T10:28:52.278Z,41.40
2017-10-12T10:31:54.322Z,41.80
2017-10-12T10:34:56.643Z,40.60
2017-10-12T10:37:59.457Z,41.60
2017-10-12T10:41:01.519Z,41.50
2017-10-12T10:44:03.455Z,44.40
2017-10-12T10:47:05.412Z,46.90
2017-10-12T10:50:07.364Z,48.50
2017-10-12T10:53:09.337Z,50.30
2017-10-12T10:56:11.374Z,51.40
2017-10-12T10:59:13.862Z,50.80
2017-10-12T11:02:15.835Z,47.80
2017-10-12T11:05:18.878Z,38.50
2017-10-12T11:08:20.819Z,38.50
2017-10-12T11:11:23.559Z,34.40
2017-10-12T11:14:25.585Z,34.40
2017-10-12T11:17:27.887Z,35.30
2017-10-12T11:20:30.711Z,32.40
2017-10-12T11:23:32.772Z,31.90
2017-10-12T11:26:34.779Z,32.00
2017-10-12T11:29:36.733Z,30.40
2017-10-12T11:32:38.742Z,32.20
2017-10-12T11:35:40.729Z,33.90
2017-10-12T11:38:42.677Z,36.70
2017-10-12T11:41:44.671Z,39.10
2017-10-12T11:44:46.595Z,39.90
2017-10-12T11:47:48.961Z,40.80
2017-10-12T11:50:50.962Z,41.00
2017-10-12T11:53:53.077Z,41.70
2017-10-12T11:56:55.005Z,42.00
2017-10-12T11:59:57.818Z,35.90
2017-10-12T12:03:00.633Z,34.00
2017-10-12T12:06:02.687Z,34.00
2017-10-12T12:09:04.618Z,34.90
2017-10-12T12:12:06.992Z,32.90
2017-10-12T12:15:08.956Z,34.70
2017-10-12T12:18:12.086Z,38.30
2017-10-12T12:21:14.065Z,38.30
2017-10-12T12:24:16.610Z,38.50
2017-10-12T12:27:18.937Z,36.00
2017-10-12T12:30:21.739Z,33.40
2017-10-12T12:33:24.891Z,31.60
2017-10-12T12:36:26.950Z,31.60
2017-10-12T12:39:28.964Z,33.00
2017-10-12T12:42:31.951Z,33.00
2017-10-12T12:45:33.920Z,33.20
2017-10-12T12:48:36.902Z,36.90
2017-10-12T12:51:38.878Z,36.80
2017-10-12T12:54:40.989Z,38.60
2017-10-12T12:57:43.775Z,42.20
2017-10-12T13:00:46.570Z,42.10
2017-10-12T13:03:48.558Z,42.10
2017-10-12T13:06:50.540Z,42.70
2017-10-12T13:09:54.086Z,43.60
2017-10-12T13:12:56.902Z,42.80
2017-10-12T13:15:58.874Z,42.70
2017-10-12T13:19:01.738Z,42.80
2017-10-12T13:22:03.665Z,42.70
2017-10-12T13:25:05.822Z,43.40
2017-10-12T13:28:07.874Z,43.40
2017-10-12T13:31:10.218Z,43.40
2017-10-12T13:34:12.926Z,45.40
2017-10-12T13:37:16.053Z,44.90
2017-10-12T13:40:18.089Z,44.90
2017-10-12T13:43:20.956Z,47.10
2017-10-12T13:46:23.065Z,47.20
2017-10-12T13:49:25.403Z,47.70
2017-10-12T13:52:28.238Z,48.10
2017-10-12T13:55:30.808Z,49.60
2017-10-12T13:58:33.200Z,50.10
2017-10-12T14:01:35.519Z,50.30
2017-10-12T14:04:37.793Z,49.50
2017-10-12T14:07:40.734Z,48.70
2017-10-12T14:10:42.695Z,48.60
2017-10-12T14:13:44.688Z,49.10
2017-10-12T14:16:46.658Z,49.70
2017-10-12T14:19:48.626Z,50.20
2017-10-12T14:22:51.438Z,51.30
2017-10-12T14:25:53.513Z,50.60
2017-10-12T14:28:56.408Z,49.50
2017-10-12T14:31:58.382Z,49.50
2017-10-12T14:35:00.354Z,50.00
2017-10-12T14:38:02.349Z,50.80
2017-10-12T14:41:05.180Z,51.90
2017-10-12T14:44:07.583Z,52.00
2017-10-12T14:47:09.553Z,52.90
2017-10-12T14:50:12.677Z,53.50
2017-10-12T14:53:14.597Z,53.50
2017-10-12T14:56:16.536Z,54.30
2017-10-12T14:59:18.509Z,54.80
2017-10-12T15:02:21.226Z,55.90
2017-10-12T15:05:23.194Z,55.80
2017-10-12T15:08:25.237Z,55.90
2017-10-12T15:11:27.365Z,56.50
2017-10-12T15:14:30.148Z,58.10
2017-10-12T15:17:32.138Z,58.10
2017-10-12T15:20:35.193Z,57.60
2017-10-12T15:23:37.270Z,57.60
2017-10-12T15:26:39.327Z,56.70
2017-10-12T15:29:42.154Z,56.80
2017-10-12T15:32:45.487Z,56.70
2017-10-12T15:35:47.410Z,57.10
2017-10-12T15:38:50.209Z,57.50
2017-10-12T15:41:52.131Z,56.80
2017-10-12T15:44:54.210Z,56.90
2017-10-12T15:47:56.187Z,56.80
2017-10-12T15:50:58.168Z,57.60
2017-10-12T15:54:00.125Z,58.40
2017-10-12T15:57:02.950Z,58.30
2017-10-12T16:00:04.913Z,58.80
2017-10-12T16:03:07.754Z,60.40
2017-10-12T16:06:09.734Z,60.50
2017-10-12T16:09:11.796Z,61.10
2017-10-12T16:12:14.486Z,61.70
2017-10-12T16:15:16.489Z,61.80
2017-10-12T16:18:19.294Z,63.30
2017-10-12T16:21:22.038Z,64.10
2017-10-12T16:24:24.087Z,64.10
2017-10-12T16:27:26.134Z,65.10
2017-10-12T16:30:28.237Z,65.30
2017-10-12T16:33:31.055Z,66.10
2017-10-12T16:36:33.174Z,66.80
2017-10-12T16:39:35.327Z,66.20
2017-10-12T16:42:38.131Z,67.20
2017-10-12T16:45:40.858Z,67.50
2017-10-12T16:48:42.846Z,67.50
2017-10-12T16:51:44.809Z,67.70
2017-10-12T16:54:46.773Z,67.90
2017-10-12T16:57:49.513Z,69.10
2017-10-12T17:00:52.347Z,69.10
2017-10-12T17:03:54.349Z,69.40
2017-10-12T17:06:56.299Z,69.70
2017-10-12T17:09:58.374Z,70.20
2017-10-12T17:13:01.024Z,70.60
2017-10-12T17:16:03.925Z,71.50
2017-10-12T17:19:06.021Z,71.50
2017-10-12T17:22:08.300Z,71.80
2017-10-12T17:25:10.370Z,72.20
2017-10-12T17:28:13.394Z,73.20
2017-10-12T17:31:15.581Z,72.50
2017-10-12T17:34:18.078Z,72.30
2017-10-12T17:37:20.467Z,72.70
2017-10-12T17:40:22.962Z,72.80
2017-10-12T17:43:25.261Z,72.70
2017-10-12T17:46:28.568Z,72.90
2017-10-12T17:49:30.965Z,73.40
2017-10-12T17:52:33.352Z,73.10
2017-10-12T17:55:35.746Z,73.60
2017-10-12T17:58:38.143Z,73.70
2017-10-12T18:01:40.639Z,74.00
2017-10-12T18:07:45.730Z,74.10
2017-10-12T18:10:48.122Z,74.30
2017-10-12T18:13:50.410Z,74.60
2017-10-12T18:19:54.768Z,75.30
2017-10-12T18:22:57.904Z,77.10
2017-10-12T18:26:00.288Z,76.20
2017-10-12T18:29:02.683Z,76.80
2017-10-12T18:32:04.975Z,77.20
2017-10-12T18:35:07.192Z,77.80
2017-10-12T18:38:09.347Z,78.30
2017-10-12T18:41:12.235Z,79.10
2017-10-12T18:44:14.373Z,79.00
2017-10-12T18:47:16.402Z,79.90
2017-10-12T18:50:18.616Z,80.10
2017-10-12T18:53:21.458Z,80.70
2017-10-12T18:56:23.425Z,80.60
2017-10-12T18:59:25.485Z,81.00
2017-10-12T19:02:28.492Z,81.20
2017-10-12T19:05:31.298Z,81.50
2017-10-12T19:08:33.998Z,81.40
2017-10-12T19:11:36.710Z,81.80
2017-10-12T19:14:39.399Z,82.00
2017-10-12T19:17:42.234Z,82.20
2017-10-12T19:20:44.204Z,82.10
2017-10-12T19:23:46.163Z,82.30
2017-10-12T19:26:48.147Z,82.30
2017-10-12T19:29:50.170Z,82.70
2017-10-12T19:32:52.925Z,82.60
2017-10-12T19:35:54.895Z,82.40
2017-10-12T19:38:56.933Z,83.00
2017-10-12T19:41:58.882Z,83.30
2017-10-12T19:45:01.791Z,83.40
2017-10-12T19:48:05.583Z,83.70
2017-10-12T19:54:09.628Z,83.70
2017-10-12T19:57:11.676Z,83.70
2017-10-12T20:00:14.506Z,84.20
2017-10-12T20:03:16.450Z,84.10
2017-10-12T20:06:18.442Z,84.20
2017-10-12T20:09:21.969Z,84.60
2017-10-12T20:12:24.716Z,84.70
2017-10-12T20:15:26.675Z,84.70
2017-10-12T20:18:29.559Z,84.80
2017-10-12T20:21:32.270Z,85.30
2017-10-12T20:24:34.227Z,85.20
2017-10-12T20:27:37.784Z,85.50
2017-10-12T20:30:39.845Z,85.50
2017-10-12T20:33:42.553Z,85.90
2017-10-12T20:36:45.400Z,86.10
2017-10-12T20:39:47.414Z,86.10
2017-10-12T20:42:49.386Z,86.30
2017-10-12T20:45:51.402Z,86.50
2017-10-12T20:48:53.367Z,87.80
2017-10-12T20:51:55.433Z,87.80
2017-10-12T20:55:12.407Z,88.60
2017-10-12T20:57:59.389Z,88.00
2017-10-12T21:01:01.414Z,88.10
2017-10-12T21:04:04.211Z,88.00
2017-10-12T21:07:07.009Z,88.20
2017-10-12T21:10:09.701Z,88.60
2017-10-12T21:13:11.686Z,88.20
2017-10-12T21:16:13.633Z,88.20
2017-10-12T21:19:15.603Z,88.20
2017-10-12T21:22:17.530Z,88.30
2017-10-12T21:25:19.510Z,88.40
2017-10-12T21:28:21.426Z,88.50
2017-10-12T21:31:24.138Z,88.80
2017-10-12T21:34:26.719Z,88.90
2017-10-12T21:37:30.171Z,89.00
2017-10-12T21:40:32.211Z,89.00
2017-10-12T21:43:35.023Z,89.00
2017-10-12T21:46:37.834Z,89.10
2017-10-12T21:49:39.895Z,89.00
2017-10-12T21:52:41.828Z,89.00
2017-10-12T21:55:43.790Z,89.10
2017-10-12T21:58:45.725Z,89.20
2017-10-12T22:01:47.662Z,89.40
2017-10-12T22:04:49.607Z,89.80
2017-10-12T22:07:52.360Z,90.00
2017-10-12T22:10:54.293Z,90.00
2017-10-12T22:13:57.104Z,90.20
2017-10-12T22:16:59.881Z,90.20
2017-10-12T22:20:01.821Z,90.20
2017-10-12T22:23:03.741Z,90.30
2017-10-12T22:26:05.832Z,90.30
2017-10-12T22:29:07.810Z,90.40
2017-10-12T22:32:09.833Z,90.50
2017-10-12T22:35:11.799Z,90.60
2017-10-12T22:38:14.514Z,90.70
2017-10-12T22:41:16.465Z,90.70
2017-10-12T22:44:19.180Z,91.10
2017-10-12T22:47:21.890Z,91.00
2017-10-12T22:50:23.967Z,91.00
2017-10-12T22:53:26.757Z,91.20
2017-10-12T22:56:28.912Z,91.20
2017-10-12T22:59:30.889Z,91.20
2017-10-12T23:02:32.921Z,91.30
2017-10-12T23:05:35.731Z,91.40
2017-10-12T23:08:38.470Z,91.50
2017-10-12T23:11:40.486Z,91.60
2017-10-12T23:14:42.502Z,91.60
2017-10-12T23:17:44.490Z,91.80
2017-10-12T23:20:46.568Z,91.80
2017-10-12T23:23:49.368Z,91.90
2017-10-12T23:26:52.102Z,92.00
2017-10-12T23:29:54.029Z,92.00
2017-10-12T23:32:56.046Z,92.10
2017-10-12T23:35:57.997Z,92.20
2017-10-12T23:38:59.997Z,92.20
2017-10-12T23:42:02.717Z,92.40
2017-10-12T23:45:05.603Z,92.50
2017-10-12T23:48:07.570Z,92.50
2017-10-12T23:51:10.971Z,92.40
2017-10-12T23:54:13.803Z,92.70
2017-10-12T23:57:16.618Z,92.70
